Flight Track Log - Related Links

Times and Time Zones

All times are in EDT time to prevent confusion due to time zone crossing. See the SWA1729 flight status page for this flight to view local times or setup timezone preferences in your user account.

Time Position Orientation Groundspeed Altitude Reporting Facility
EDT Latitude Longitude Course Direction KTS MPH feet Rate Location/Type
Sun 10:04:46 PM 29.5756 -95.3228 207° Southwest 236 272 3,400  Level Houston Center
Sun 10:05:16 PM 29.5514 -95.3369 207° Southwest 242 278 4,400 3,403 Climbing Houston Center
Sun 10:05:53 PM 29.5069 -95.3767 218° Southwest 288 331 7,200 3,541 Climbing Houston Center
Sun 10:06:17 PM 29.5067 -95.4003 269° West 292 336 8,000 3,273 Climbing Houston Center
Sun 10:06:48 PM 29.5325 -95.4503 301° West 292 336 10,200 2,900 Climbing Houston Center
Sun 10:07:17 PM 29.5483 -95.4808 301° West 292 336 10,900 2,400 Climbing Houston Center
Sun 10:08:18 PM 29.5969 -95.5739 301° West 331 381 13,800 2,902 Climbing Houston Center
Sun 10:09:00 PM 29.8766 -95.9130 291° West  Level FlightAware Approximate
Sun 10:09:19 PM 29.6483 -95.6700 302° West 347 399 16,800  Level Houston Center
Sun 10:10:20 PM 29.6983 -95.7644 301° West 348 400 19,900 2,508 Climbing Houston Center
Sun 10:11:21 PM 29.7500 -95.8592 302° West 348 400 21,900 2,066 Climbing Houston Center
Sun 10:12:22 PM 29.8044 -95.9622 301° West 371 427 24,100 2,066 Climbing Houston Center
Sun 10:13:23 PM 29.8619 -96.0697 302° West 380 437 26,100 1,820 Climbing Houston Center
Sun 10:14:24 PM 29.9181 -96.1739 302° West 383 441 27,800 2,016 Climbing Houston Center
Sun 10:15:25 PM 29.9428 -96.3186 281° West 392 451 30,200 2,311 Climbing Houston Center
Sun 10:16:26 PM 29.9486 -96.4347 273° West 369 425 32,500 1,820 Climbing Houston Center
Sun 10:17:27 PM 29.9547 -96.5464 274° West 354 407 33,900 1,377 Climbing Houston Center
Sun 10:18:28 PM 29.9753 -96.6558 282° West 352 405 35,300 984 Climbing Houston Center
Sun 10:19:29 PM 29.9986 -96.7639 284° West 351 404 35,900 347 Climbing Houston Center
Sun 10:20:29 PM 30.0214 -96.8761 283° West 359 413 36,000 50 Climbing Houston Center
Sun 10:21:30 PM 30.0578 -96.9836 291° West 362 417 36,000  Level Houston Center
Sun 10:22:31 PM 30.1042 -97.0986 295° West 361 415 36,000  Level Houston Center
Sun 10:23:32 PM 30.1464 -97.2058 295° West 362 417 36,000  Level Houston Center
Sun 10:24:33 PM 30.1872 -97.3114 294° West 357 411 36,000  Level Houston Center
Sun 10:25:34 PM 30.2294 -97.4175 295° West 358 412 36,000  Level Houston Center
Sun 10:26:35 PM 30.2694 -97.5219 294° West 353 406 36,000  Level Houston Center
Sun 10:27:36 PM 30.3106 -97.6250 295° West 350 403 36,000  Level Houston Center
Sun 10:28:37 PM 30.3522 -97.7303 295° West 353 406 36,000  Level Houston Center
Sun 10:29:38 PM 30.3936 -97.8372 294° West 356 410 36,000  Level Houston Center
Sun 10:30:39 PM 30.4353 -97.9442 294° West 359 413 36,000  Level Houston Center
Sun 10:31:40 PM 30.4775 -98.0528 294° West 364 419 36,000  Level Houston Center
Sun 10:32:41 PM 30.5203 -98.1647 294° West 373 429 36,000  Level Houston Center
Sun 10:33:42 PM 30.5631 -98.2758 294° West 373 429 36,000  Level Houston Center
Sun 10:34:43 PM 30.6064 -98.3889 294° West 379 436 36,000  Level Houston Center
Sun 10:35:44 PM 30.6494 -98.5022 294° West 379 436 36,000 -49 Level Houston Center
Sun 10:36:45 PM 30.6956 -98.6128 296° West 377 434 35,900 -541 Descending Houston Center
Sun 10:37:46 PM 30.7736 -98.6994 316° Northwest 383 441 34,900 -934 Descending Houston Center
Sun 10:38:47 PM 30.8503 -98.7786 318° Northwest 368 423 34,000 -443 Descending Houston Center
Sun 10:39:48 PM 30.9272 -98.8567 319° Northwest 364 419 34,000  Level Houston Center
Sun 10:40:49 PM 31.0064 -98.9344 320° Northwest 367 422 34,000  Level Houston Center
Sun 10:41:50 PM 31.0856 -99.0133 320° Northwest 369 425 34,000  Level Houston Center
Sun 10:42:51 PM 31.1664 -99.0936 320° Northwest 376 433 34,000  Level Houston Center
Sun 10:43:51 PM 31.2406 -99.1828 314° West 365 420 34,000  Level Houston Center
Sun 10:44:52 PM 31.2528 -99.2994 277° West 362 417 34,000  Level Houston Center
Sun 10:45:53 PM 31.2658 -99.4161 277° West 364 419 34,000  Level Houston Center
Sun 10:46:54 PM 31.2775 -99.5350 277° West 368 423 34,000  Level Houston Center
Sun 10:47:55 PM 31.2908 -99.6567 277° West 377 434 34,000  Level Houston Center
Sun 10:48:56 PM 31.3039 -99.7792 277° West 380 437 34,000  Level Houston Center
Sun 10:49:57 PM 31.3150 -99.9017 276° West 382 440 34,000  Level Houston Center
Sun 10:50:58 PM 31.3283 -100.0242 277° West 379 436 34,000  Level Houston Center
Sun 10:51:59 PM 31.3425 -100.1692 277° West 378 435 34,000  Level Houston Center
Sun 10:53:00 PM 31.3556 -100.2950 277° West 388 447 34,000 -49 Level Houston Center
Sun 10:54:01 PM 31.3678 -100.4217 276° West 394 453 33,900  Descending Houston Center
Sun 10:54:18 PM 31.3706 -100.4547 276° West 394 453 34,000  Climbing Fort Worth Center
Sun 10:55:18 PM 31.3822 -100.5814 276° West 394 453 33,900 -50 Descending Fort Worth Center
Sun 10:56:18 PM 31.3956 -100.7133 277° West 389 448 33,900 50 Level Fort Worth Center
Sun 10:57:18 PM 31.4086 -100.8403 277° West 389 448 34,000 50 Climbing Fort Worth Center
Sun 10:58:18 PM 31.4178 -100.9672 275° West 389 448 34,000  Level Fort Worth Center
Sun 10:59:18 PM 31.4306 -101.0992 277° West 394 453 34,000  Level Fort Worth Center
Sun 11:00:18 PM 31.4436 -101.2289 277° West 399 459 34,000 450 Level Fort Worth Center
Sun 11:01:18 PM 31.4583 -101.3608 277° West 409 471 34,900 1,000 Climbing Fort Worth Center
Sun 11:02:18 PM 31.4686 -101.4953 275° West 409 471 36,000 550 Climbing Fort Worth Center
Sun 11:03:18 PM 31.4808 -101.6247 276° West 409 471 36,000  Level Fort Worth Center
Sun 11:04:18 PM 31.4917 -101.7422 276° West 409 471 36,000  Level Fort Worth Center
Sun 11:05:18 PM 31.5036 -101.8744 276° West 409 471 36,000  Level Fort Worth Center
Sun 11:06:02 PM 31.5069 -101.9725 272° West 426 490 36,000  Level Albuquerque Center
Sun 11:07:04 PM 31.5197 -102.1050 276° West 414 476 36,000  Level Albuquerque Center
Sun 11:08:05 PM 31.5319 -102.2478 276° West 409 471 36,000  Level Albuquerque Center
Sun 11:09:06 PM 31.5433 -102.3803 276° West 413 475 36,000  Level Albuquerque Center
Sun 11:10:07 PM 31.5539 -102.5150 275° West 418 481 36,000  Level Albuquerque Center
Sun 11:11:09 PM 31.5639 -102.6506 275° West 421 484 36,000  Level Albuquerque Center
Sun 11:12:10 PM 31.5750 -102.8144 275° West 423 487 36,000  Level Albuquerque Center
Sun 11:13:11 PM 31.5769 -102.9517 271° West 423 487 36,000 -49 Level Albuquerque Center
Sun 11:14:13 PM 31.5775 -103.0881 270° West 421 484 35,900  Descending Albuquerque Center
Sun 11:15:14 PM 31.5797 -103.2239 271° West 420 483 36,000 49 Climbing Albuquerque Center
Sun 11:16:15 PM 31.5814 -103.3600 271° West 419 482 36,000  Level Albuquerque Center
Sun 11:17:17 PM 31.5817 -103.4922 270° West 417 480 36,000  Level Albuquerque Center
Sun 11:18:18 PM 31.5842 -103.6283 271° West 417 480 36,000  Level Albuquerque Center
Sun 11:19:19 PM 31.5842 -103.7714 270° West 413 475 36,000 -49 Level Albuquerque Center
Sun 11:20:21 PM 31.5864 -103.9050 271° West 411 473 35,900  Descending Albuquerque Center
Sun 11:21:22 PM 31.5878 -104.0361 271° West 406 467 36,000 -488 Climbing Albuquerque Center
Sun 11:22:24 PM 31.5883 -104.1675 270° West 406 467 34,900 -1,024 Descending Albuquerque Center
Sun 11:23:25 PM 31.5900 -104.3253 271° West 406 467 33,900 -443 Descending Albuquerque Center
Sun 11:24:26 PM 31.5906 -104.4572 270° West 407 468 34,000 49 Climbing Albuquerque Center
Sun 11:25:28 PM 31.5906 -104.5917 270° West 412 474 34,000 -537 Level Albuquerque Center
Sun 11:26:29 PM 31.5908 -104.7294 270° West 422 486 32,900 -1,967 Descending Albuquerque Center
Sun 11:27:30 PM 31.5911 -104.8675 270° West 425 489 30,000 -2,607 Descending Albuquerque Center
Sun 11:28:31 PM 31.5917 -105.0006 270° West 414 476 27,600 -2,341 Descending Albuquerque Center
Sun 11:29:33 PM 31.5914 -105.1272 270° West 397 457 25,200 -2,293 Descending Albuquerque Center
Sun 11:30:34 PM 31.5903 -105.2519 269° West 387 445 22,900 -2,434 Descending Albuquerque Center
Sun 11:31:19 PM 31.5886 -105.3675 269° West 371 427 20,900 -2,656 Descending Albuquerque Center
Sun 11:31:35 PM 31.5897 -105.3981 272° West 381 438 20,200 -2,361 Descending Albuquerque Center
Sun 11:32:20 PM 31.5889 -105.4925 269° West 383 441 18,500 -2,226 Descending Albuquerque Center
Sun 11:32:37 PM 31.5892 -105.5236 271° West 387 445 17,900 -2,300 Descending Albuquerque Center
Sun 11:33:20 PM 31.5889 -105.6172 270° West 387 445 16,200 -2,226 Descending Albuquerque Center
Sun 11:33:39 PM 31.5881 -105.6464 268° West 381 438 15,600 -2,262 Descending Albuquerque Center
Sun 11:34:21 PM 31.5875 -105.7350 270° West 363 418 13,900 -2,262 Descending Albuquerque Center
Sun 11:34:40 PM 31.5875 -105.7628 270° West 363 418 13,300 -2,066 Descending Albuquerque Center
Sun 11:35:22 PM 31.6075 -105.8422 286° West 335 386 11,800 -2,066 Descending Albuquerque Center
Sun 11:35:41 PM 31.6192 -105.8631 303° West 335 386 11,200 -1,700 Descending Albuquerque Center
Sun 11:36:22 PM 31.6542 -105.9328 301° West 322 371 10,100 -1,180 Descending Albuquerque Center
Sun 11:36:42 PM 31.6642 -105.9525 301° West 317 365 10,000 -1,377 Descending Albuquerque Center
Sun 11:37:23 PM 31.6981 -106.0192 301° West 283 326 8,700 -1,475 Descending Albuquerque Center
Sun 11:37:43 PM 31.7039 -106.0331 296° West 289 333 8,500 -689 Descending Albuquerque Center
Sun 11:38:24 PM 31.7358 -106.0969 300° West 268 308 8,000 -484 Descending Albuquerque Center
Sun 11:38:45 PM 31.7419 -106.1067 306° West 265 305 8,000 -500 Level Albuquerque Center
Sun 11:39:24 PM 31.7839 -106.1500 319° Northwest 244 281 7,500 -885 Descending Albuquerque Center
Sun 11:39:46 PM 31.8033 -106.1711 317° Northwest 248 285 7,100 -984 Descending Albuquerque Center
Sun 11:40:25 PM 31.8289 -106.2086 309° West 239 275 6,500 -984 Descending Albuquerque Center
Sun 11:40:47 PM 31.8356 -106.2342 287° West 235 270 6,100 -1,000 Descending Albuquerque Center
Sun 11:41:25 PM 31.8475 -106.2764 288° West 211 243 5,500 -871 Descending Albuquerque Center
Sun 11:41:49 PM 31.8522 -106.2994 284° West 208 239 5,200 -689 Descending Albuquerque Center
Sun 11:42:26 PM 31.8489 -106.3311 263° West 152 175 4,800 -689 Descending Albuquerque Center
Sun 11:42:50 PM 31.8422 -106.3433 237° Southwest 150 173 4,500 -565 Descending Albuquerque Center
Sun 11:43:51 PM 31.8181 -106.3747 228° Southwest 134 154 4,000 -492 Descending Albuquerque Center
Sun 11:45:00 PM 31.8072 -106.3764 270° West  Level Estimated
Sun 11:52:00 PM 31.8072 -106.3764 270° West  Level Estimated
Sun 11:53:00 PM 31.8072 -106.3764 270° West  Level Estimated
Sun 11:54:00 PM 31.8072 -106.3764 270° West  Level Estimated
Sun 11:55:00 PM 31.8072 -106.3764 270° West  Level Estimated

Login

Don't have an account? Register now (free) for customized features, flight alerts, and more!